Time;durP1;ratioP1;P1;durP2;ratioP2;P2;SDS_P1;SDS_P2;PMS_P1;PMS_P2;Temp;Humidity;BMP_temperature;BMP_pressure;BME280_temperature;BME280_humidity;BME280_pressure;Samples;Min_cycle;Max_cycle;Signal;HPM_P1;HPM_P2
2024/01/21 00:01:51;;;;;;;19.63;10.52;;;;;;;-2.75;100.00;102267.50;5071998;28;20040;-47
2024/01/21 00:04:20;;;;;;;17.15;9.52;;;;;;;-2.74;100.00;102268.34;5070624;28;20080;-45
2024/01/21 00:06:50;;;;;;;17.75;10.32;;;;;;;-2.71;100.00;102260.69;5071236;28;20041;-47
2024/01/21 00:09:18;;;;;;;19.50;10.57;;;;;;;-2.73;100.00;102259.78;5068598;28;20044;-46
2024/01/21 00:11:46;;;;;;;18.20;9.60;;;;;;;-2.77;100.00;102256.34;5070348;28;20417;-46
2024/01/21 00:14:14;;;;;;;17.30;9.20;;;;;;;-2.80;100.00;102248.53;5071728;28;20123;-46
2024/01/21 00:16:43;;;;;;;16.00;9.88;;;;;;;-2.81;100.00;102246.84;5071539;28;20036;-46
2024/01/21 00:19:11;;;;;;;17.33;9.85;;;;;;;-2.83;100.00;102243.38;5070671;28;20110;-45
2024/01/21 00:21:39;;;;;;;18.45;9.75;;;;;;;-2.84;100.00;102233.06;5070162;28;20061;-49
2024/01/21 00:24:09;;;;;;;19.83;9.60;;;;;;;-2.86;100.00;102230.47;5072037;28;20123;-45
2024/01/21 00:26:37;;;;;;;16.75;9.50;;;;;;;-2.87;100.00;102235.59;5074161;28;20153;-47
2024/01/21 00:29:06;;;;;;;17.48;9.68;;;;;;;-2.89;100.00;102231.28;5075144;28;20075;-46
2024/01/21 00:31:36;;;;;;;18.55;9.68;;;;;;;-2.90;100.00;102232.13;5073910;28;20036;-46
2024/01/21 00:34:04;;;;;;;16.77;9.57;;;;;;;-2.90;100.00;102233.84;5073226;28;20090;-48
2024/01/21 00:36:35;;;;;;;17.70;9.88;;;;;;;-2.93;100.00;102236.34;5071933;28;20037;-49
2024/01/21 00:39:03;;;;;;;19.35;9.80;;;;;;;-2.98;100.00;102220.84;5072005;28;20052;-49
2024/01/21 00:41:32;;;;;;;15.48;9.00;;;;;;;-2.95;100.00;102226.03;5074657;28;20055;-51
2024/01/21 00:44:01;;;;;;;17.83;9.43;;;;;;;-2.96;100.00;102219.19;5074812;28;20044;-47
2024/01/21 00:46:30;;;;;;;17.50;9.43;;;;;;;-2.99;100.00;102206.25;5074966;28;20064;-45
2024/01/21 00:48:59;;;;;;;18.83;10.40;;;;;;;-3.02;100.00;102205.34;5074915;28;20041;-48
2024/01/21 00:51:28;;;;;;;19.00;10.38;;;;;;;-3.02;100.00;102221.66;5074790;28;20048;-49
2024/01/21 00:53:56;;;;;;;19.23;9.73;;;;;;;-3.04;100.00;102210.50;5074812;28;20545;-47
2024/01/21 00:56:25;;;;;;;18.40;10.18;;;;;;;-3.06;100.00;102207.03;5073315;28;20090;-46
2024/01/21 00:58:54;;;;;;;13.32;8.23;;;;;;;-3.07;100.00;102197.56;5074571;28;20048;-48
2024/01/21 01:01:23;;;;;;;14.55;8.38;;;;;;;-3.06;100.00;102195.00;5074586;28;20487;-46
2024/01/21 01:03:51;;;;;;;13.27;7.38;;;;;;;-3.09;100.00;102192.41;5074670;28;20055;-49
2024/01/21 01:06:19;;;;;;;13.98;7.57;;;;;;;-3.01;100.00;102191.63;5074682;28;20041;-46
2024/01/21 01:08:48;;;;;;;13.50;6.65;;;;;;;-2.97;100.00;102183.97;5074549;28;20052;-47
2024/01/21 01:11:16;;;;;;;11.43;6.30;;;;;;;-2.97;100.00;102178.81;5073252;28;20067;-49
2024/01/21 01:13:44;;;;;;;11.95;6.03;;;;;;;-2.93;100.00;102184.84;5070965;28;20040;-50
2024/01/21 01:16:13;;;;;;;12.20;6.18;;;;;;;-2.97;100.00;102193.38;5072957;28;20040;-47
2024/01/21 01:18:42;;;;;;;14.13;5.82;;;;;;;-2.99;100.00;102192.53;5073855;28;20450;-45
2024/01/21 01:21:11;;;;;;;11.85;6.32;;;;;;;-3.00;100.00;102191.66;5074052;28;20463;-45
2024/01/21 01:23:39;;;;;;;13.43;6.30;;;;;;;-3.00;100.00;102175.34;5074377;28;20057;-48
2024/01/21 01:26:08;;;;;;;11.63;6.13;;;;;;;-3.00;100.00;102181.38;5072838;28;20040;-45
2024/01/21 01:28:36;;;;;;;12.82;6.70;;;;;;;-3.01;100.00;102183.91;5069874;28;20052;-46
2024/01/21 01:31:06;;;;;;;14.38;7.78;;;;;;;-3.05;100.00;102175.28;5072826;28;20049;-44
2024/01/21 01:33:35;;;;;;;11.63;6.20;;;;;;;-3.08;100.00;102165.81;5072958;28;20040;-47
2024/01/21 01:36:04;;;;;;;11.77;6.15;;;;;;;-3.06;100.00;102160.69;5073907;28;20052;-46
2024/01/21 01:38:32;;;;;;;12.55;6.35;;;;;;;-3.08;100.00;102154.63;5074046;28;20115;-47
2024/01/21 01:41:00;;;;;;;14.48;7.65;;;;;;;-3.12;100.00;102152.88;5074039;28;20051;-47
2024/01/21 01:43:28;;;;;;;11.98;6.18;;;;;;;-3.13;100.00;102146.88;5073885;28;20044;-46
2024/01/21 01:45:59;;;;;;;11.52;6.50;;;;;;;-3.13;100.00;102151.16;5073866;28;20047;-49
2024/01/21 01:48:28;;;;;;;14.00;6.50;;;;;;;-3.11;100.00;102152.03;5074102;28;20052;-47
2024/01/21 01:51:03;;;;;;;;;;;;;;;-3.15;100.00;102139.97;5074353;28;20091;-45
2024/01/21 01:53:34;;;;;;;12.43;5.95;;;;;;;-3.13;100.00;102143.44;5073542;28;19964;-46
2024/01/21 01:56:03;;;;;;;13.15;6.55;;;;;;;-3.11;100.00;102131.44;5073482;28;20040;-46
2024/01/21 01:58:32;;;;;;;12.52;6.05;;;;;;;-3.11;100.00;102119.44;5073542;28;20561;-48
2024/01/21 02:01:01;;;;;;;12.65;6.20;;;;;;;-3.00;100.00;102109.28;5073519;28;20124;-45
2024/01/21 02:03:29;;;;;;;12.10;5.78;;;;;;;-2.95;100.00;102101.59;5073511;28;20041;-45
2024/01/21 02:05:58;;;;;;;11.43;5.97;;;;;;;-2.93;100.00;102105.03;5073429;28;20040;-46
2024/01/21 02:08:27;;;;;;;11.98;6.38;;;;;;;-3.03;100.00;102101.50;5072862;28;20503;-48
2024/01/21 02:10:55;;;;;;;10.82;5.55;;;;;;;-2.89;100.00;102099.06;5072374;28;20052;-45
2024/01/21 02:13:23;;;;;;;12.68;5.90;;;;;;;-2.86;100.00;102090.53;5073277;28;20059;-45
2024/01/21 02:15:52;;;;;;;13.27;6.15;;;;;;;-2.80;100.00;102075.16;5073279;28;20048;-45
2024/01/21 02:18:23;;;;;;;11.10;6.28;;;;;;;-2.87;100.00;102075.94;5073284;28;20053;-48
2024/01/21 02:20:51;;;;;;;13.85;6.43;;;;;;;-2.90;100.00;102071.63;5073125;28;20048;-47
2024/01/21 02:23:24;;;;;;;10.85;5.50;;;;;;;-2.82;100.00;102067.41;5073275;28;20523;-46
2024/01/21 02:25:52;;;;;;;10.25;5.40;;;;;;;-2.87;100.00;102065.66;5073077;28;20123;-45
2024/01/21 02:28:20;;;;;;;14.48;5.57;;;;;;;-2.93;100.00;102061.25;5072777;28;20517;-47
2024/01/21 02:30:48;;;;;;;11.55;5.95;;;;;;;-2.87;100.00;102057.91;5072599;28;20080;-46
2024/01/21 02:33:16;;;;;;;12.57;5.95;;;;;;;-2.95;100.00;102062.97;5072885;28;20127;-48
2024/01/21 02:35:44;;;;;;;14.82;6.25;;;;;;;-2.91;100.00;102050.13;5072703;28;20064;-46
2024/01/21 02:38:12;;;;;;;12.43;6.55;;;;;;;-2.93;100.00;102048.41;5070283;28;20051;-46
2024/01/21 02:40:42;;;;;;;13.55;6.30;;;;;;;-3.00;100.00;102041.47;5069735;28;20053;-49
2024/01/21 02:43:10;;;;;;;11.98;5.60;;;;;;;-3.01;100.00;102035.47;5072888;28;20068;-46
2024/01/21 02:45:38;;;;;;;11.70;5.97;;;;;;;-2.96;100.00;102027.78;5072263;28;20435;-45
2024/01/21 02:48:07;;;;;;;12.20;6.15;;;;;;;-2.98;100.00;102022.63;5072455;28;20107;-46
2024/01/21 02:50:35;;;;;;;12.60;5.95;;;;;;;-2.96;100.00;102020.06;5072433;28;20170;-46
2024/01/21 02:53:04;;;;;;;11.27;5.22;;;;;;;-2.99;100.00;102015.72;5072547;28;20052;-47
2024/01/21 02:55:32;;;;;;;12.20;6.07;;;;;;;-3.03;100.00;102007.97;5071208;28;20045;-47
2024/01/21 02:58:01;;;;;;;12.73;5.80;;;;;;;-3.06;100.00;101999.34;5072555;28;20044;-46
2024/01/21 03:00:29;;;;;;;11.07;5.15;;;;;;;-3.04;100.00;101998.53;5072434;28;20047;-48
2024/01/21 03:02:58;;;;;;;12.13;5.63;;;;;;;-3.03;100.00;101993.38;5072379;28;20110;-46
2024/01/21 03:05:27;;;;;;;10.45;5.47;;;;;;;-3.00;100.00;101988.28;5071094;28;20134;-45
2024/01/21 03:07:55;;;;;;;10.50;5.18;;;;;;;-2.95;100.00;101976.28;5070518;28;20098;-48
2024/01/21 03:10:23;;;;;;;9.15;4.80;;;;;;;-2.86;100.00;101977.22;5069472;28;20106;-45
2024/01/21 03:12:51;;;;;;;10.23;5.60;;;;;;;-2.90;100.00;101971.19;5070938;28;20059;-48
2024/01/21 03:15:20;;;;;;;10.48;5.55;;;;;;;-2.85;100.00;101976.38;5069921;28;20408;-47
2024/01/21 03:17:49;;;;;;;10.60;5.45;;;;;;;-2.84;100.00;101975.53;5069078;28;20454;-47
2024/01/21 03:20:17;;;;;;;10.88;5.03;;;;;;;-2.82;100.00;101968.69;5069303;28;20414;-45
2024/01/21 03:22:45;;;;;;;10.57;5.35;;;;;;;-2.77;100.00;101956.72;5070647;28;20057;-46
2024/01/21 03:25:13;;;;;;;10.80;5.22;;;;;;;-2.81;100.00;101950.69;5072154;28;20530;-46
2024/01/21 03:27:41;;;;;;;12.13;5.30;;;;;;;-2.76;100.00;101956.72;5072148;28;20492;-46
2024/01/21 03:30:11;;;;;;;9.55;5.18;;;;;;;-2.77;100.00;101943.81;5072095;28;20413;-49
2024/01/21 03:32:41;;;;;;;9.80;5.18;;;;;;;-2.66;100.00;101943.91;5071371;28;20557;-50
2024/01/21 03:35:09;;;;;;;12.23;5.50;;;;;;;-2.58;100.00;101942.25;5068350;28;20045;-48
2024/01/21 03:37:38;;;;;;;9.38;4.28;;;;;;;-2.59;100.00;101933.69;5068956;28;20094;-46
2024/01/21 03:40:07;;;;;;;11.00;4.82;;;;;;;-2.58;100.00;101930.25;5069115;28;20044;-52
2024/01/21 03:42:36;;;;;;;11.77;5.10;;;;;;;-2.64;100.00;101922.47;5068414;28;20072;-51
2024/01/21 03:45:05;;;;;;;10.93;4.63;;;;;;;-2.53;100.00;101929.44;5071043;28;20045;-50
2024/01/21 03:47:33;;;;;;;9.20;4.63;;;;;;;-2.50;100.00;101919.97;5068559;28;20507;-49
2024/01/21 03:50:03;;;;;;;9.13;4.35;;;;;;;-2.55;100.00;101916.50;5069555;28;20518;-49
2024/01/21 03:52:31;;;;;;;10.95;4.60;;;;;;;-2.50;100.00;101919.13;5071907;28;20102;-53
2024/01/21 03:55:01;;;;;;;11.20;4.85;;;;;;;-2.49;100.00;101919.13;5072028;28;20044;-52
2024/01/21 03:57:29;;;;;;;10.80;4.78;;;;;;;-2.56;100.00;101918.22;5074409;28;20040;-53
2024/01/21 03:59:57;;;;;;;11.30;4.55;;;;;;;-2.56;100.00;101920.81;5075330;28;20044;-51
2024/01/21 04:02:26;;;;;;;11.10;5.22;;;;;;;-2.51;100.00;101909.66;5074129;28;20049;-49
2024/01/21 04:04:57;;;;;;;9.63;4.28;;;;;;;-2.50;100.00;101917.41;5071742;28;20048;-50
2024/01/21 04:07:27;;;;;;;10.60;4.70;;;;;;;-2.49;100.00;101897.66;5072327;28;20087;-51
2024/01/21 04:09:55;;;;;;;9.07;4.28;;;;;;;-2.49;100.00;101901.09;5072888;28;20429;-49
2024/01/21 04:12:23;;;;;;;8.98;4.28;;;;;;;-2.55;100.00;101901.03;5075222;28;20086;-51
2024/01/21 04:14:51;;;;;;;7.38;3.72;;;;;;;-2.55;100.00;101903.63;5074335;28;20106;-49
2024/01/21 04:17:20;;;;;;;8.10;3.60;;;;;;;-2.59;100.00;101901.88;5071794;28;20044;-51
2024/01/21 04:19:49;;;;;;;9.80;4.55;;;;;;;-2.58;100.00;101899.34;5072008;28;20040;-50
2024/01/21 04:22:18;;;;;;;10.02;4.05;;;;;;;-2.55;100.00;101889.06;5074797;28;20049;-51
2024/01/21 04:24:48;;;;;;;9.05;4.43;;;;;;;-2.61;100.00;101888.16;5072499;28;20052;-52
2024/01/21 04:27:16;;;;;;;9.75;4.38;;;;;;;-2.62;100.00;101881.25;5072947;28;20036;-50
2024/01/21 04:29:44;;;;;;;9.45;4.43;;;;;;;-2.66;100.00;101872.63;5075270;28;20503;-48
2024/01/21 04:32:13;;;;;;;10.30;4.50;;;;;;;-2.70;100.00;101868.31;5075214;28;20517;-49
2024/01/21 04:34:41;;;;;;;9.13;4.10;;;;;;;-2.74;100.00;101871.72;5075160;28;20045;-49
2024/01/21 04:37:09;;;;;;;10.00;4.20;;;;;;;-2.76;100.00;101873.47;5075253;28;20123;-48
2024/01/21 04:39:37;;;;;;;10.27;4.90;;;;;;;-2.74;100.00;101869.16;5074456;28;20051;-49
2024/01/21 04:42:07;;;;;;;9.70;4.47;;;;;;;-2.69;100.00;101864.06;5071926;28;20445;-46
2024/01/21 04:44:35;;;;;;;9.82;4.80;;;;;;;-2.56;100.00;101856.41;5073202;28;20458;-46
2024/01/21 04:47:04;;;;;;;10.05;4.93;;;;;;;-2.58;100.00;101855.56;5074932;28;20508;-49
2024/01/21 04:49:32;;;;;;;8.80;4.38;;;;;;;-2.53;100.00;101854.72;5074672;28;20037;-47
2024/01/21 04:52:01;;;;;;;10.27;4.35;;;;;;;-2.58;100.00;101852.97;5074444;28;20055;-45
2024/01/21 04:54:29;;;;;;;9.35;4.38;;;;;;;-2.54;100.00;101848.69;5074721;28;20098;-47
2024/01/21 04:56:57;;;;;;;9.82;4.57;;;;;;;-2.55;100.00;101841.78;5074734;28;20051;-44
2024/01/21 04:59:27;;;;;;;9.95;4.72;;;;;;;-2.56;100.00;101825.50;5072462;28;20221;-45
2024/01/21 05:01:55;;;;;;;11.80;4.53;;;;;;;-2.51;100.00;101827.22;5070624;28;20048;-44
2024/01/21 05:04:23;;;;;;;10.23;4.53;;;;;;;-2.49;100.00;101808.34;5074538;28;20545;-46
2024/01/21 05:06:52;;;;;;;9.38;4.30;;;;;;;-2.39;100.00;101809.25;5071547;28;20044;-45
2024/01/21 05:09:20;;;;;;;10.50;4.57;;;;;;;-2.30;100.00;101798.13;5072423;28;20062;-48
2024/01/21 05:11:48;;;;;;;10.43;4.55;;;;;;;-2.26;100.00;101787.81;5073520;28;20129;-47
2024/01/21 05:14:16;;;;;;;10.27;4.35;;;;;;;-2.18;100.00;101772.38;5074006;28;20101;-48
2024/01/21 05:16:46;;;;;;;9.70;4.10;;;;;;;-2.12;100.00;101763.81;5074553;28;20049;-49
2024/01/21 05:19:16;;;;;;;9.98;4.10;;;;;;;-2.10;100.00;101787.84;5074294;28;20119;-45
2024/01/21 05:21:44;;;;;;;10.38;4.40;;;;;;;-2.12;100.00;101763.81;5073926;28;20056;-46
2024/01/21 05:24:12;;;;;;;8.68;3.72;;;;;;;-1.98;100.00;101782.72;5072050;28;20052;-45
2024/01/21 05:26:44;;;;;;;10.02;4.10;;;;;;;-2.01;100.00;101787.03;5071363;28;20037;-47
2024/01/21 05:29:13;;;;;;;8.93;4.10;;;;;;;-2.00;100.00;101774.16;5070142;28;20142;-47
2024/01/21 05:31:41;;;;;;;9.18;3.88;;;;;;;-1.96;100.00;101775.88;5074154;28;20460;-46
2024/01/21 05:34:10;;;;;;;9.68;3.80;;;;;;;-1.83;100.00;101756.09;5074211;28;20040;-47
2024/01/21 05:36:39;;;;;;;8.65;3.83;;;;;;;-1.82;100.00;101756.97;5073797;28;20045;-46
2024/01/21 05:39:07;;;;;;;9.60;4.07;;;;;;;-1.74;100.00;101760.44;5071719;28;20085;-46
2024/01/21 05:41:38;;;;;;;8.05;3.95;;;;;;;-1.76;100.00;101770.75;5069595;28;20048;-46
2024/01/21 05:44:06;;;;;;;8.30;3.20;;;;;;;-1.70;100.00;101765.56;5070096;28;20584;-47
2024/01/21 05:46:34;;;;;;;9.23;3.83;;;;;;;-1.66;100.00;101753.53;5070245;28;20048;-47
2024/01/21 05:49:02;;;;;;;10.07;4.00;;;;;;;-1.64;100.00;101756.97;5072089;28;20045;-46
2024/01/21 05:51:32;;;;;;;9.85;3.90;;;;;;;-1.66;100.00;101744.94;5073886;28;20048;-49
2024/01/21 05:54:00;;;;;;;10.27;3.60;;;;;;;-1.60;100.00;101745.78;5073774;28;20051;-45
2024/01/21 05:56:28;;;;;;;8.65;3.80;;;;;;;-1.56;100.00;101726.88;5069328;28;20040;-47
2024/01/21 05:58:57;;;;;;;9.10;3.88;;;;;;;-1.50;100.00;101701.94;5069774;28;20395;-46
2024/01/21 06:01:25;;;;;;;8.75;3.55;;;;;;;-1.45;100.00;101700.22;5069731;28;20048;-48
2024/01/21 06:03:53;;;;;;;8.20;3.70;;;;;;;-1.48;100.00;101719.13;5072535;28;20060;-46
2024/01/21 06:06:22;;;;;;;8.23;3.88;;;;;;;-1.49;100.00;101732.03;5073380;28;20044;-47
2024/01/21 06:08:51;;;;;;;9.13;3.03;;;;;;;-1.46;100.00;101737.19;5073293;28;20120;-46
2024/01/21 06:11:19;;;;;;;8.07;3.75;;;;;;;-1.42;100.00;101734.63;5071982;28;20067;-46
2024/01/21 06:13:47;;;;;;;8.68;3.80;;;;;;;-1.44;100.00;101743.22;5073210;28;20134;-45
2024/01/21 06:16:18;;;;;;;10.20;3.72;;;;;;;-1.42;100.00;101720.84;5073071;28;20080;-46
2024/01/21 06:18:46;;;;;;;7.93;3.38;;;;;;;-1.40;100.00;101732.03;5072373;28;20047;-46
2024/01/21 06:21:16;;;;;;;8.18;3.65;;;;;;;-1.33;100.00;101723.41;5070585;28;20078;-45
2024/01/21 06:23:45;;;;;;;6.88;3.22;;;;;;;-1.30;100.00;101720.81;5069845;28;20047;-47
2024/01/21 06:26:19;;;;;;;8.88;3.60;;;;;;;-1.31;100.00;101729.44;5069700;28;20563;-46
2024/01/21 06:28:48;;;;;;;8.02;3.45;;;;;;;-1.29;100.00;101732.03;5071116;28;20127;-46
2024/01/21 06:31:16;;;;;;;7.35;3.42;;;;;;;-1.29;100.00;101729.44;5068792;28;20078;-45
2024/01/21 06:33:45;;;;;;;8.20;3.40;;;;;;;-1.25;100.00;101729.41;5068882;28;20525;-48
2024/01/21 06:36:13;;;;;;;9.45;3.88;;;;;;;-1.26;100.00;101732.00;5069732;28;20135;-50
2024/01/21 06:38:42;;;;;;;9.82;4.07;;;;;;;-1.25;100.00;101733.75;5071433;28;20128;-47
2024/01/21 06:41:10;;;;;;;8.68;3.53;;;;;;;-1.23;100.00;101748.38;5067823;28;20093;-51
2024/01/21 06:43:39;;;;;;;9.18;3.95;;;;;;;-1.22;100.00;101739.72;5068546;28;20110;-49
2024/01/21 06:46:08;;;;;;;9.20;4.07;;;;;;;-1.17;100.00;101756.94;5069196;28;20047;-50
2024/01/21 06:48:36;;;;;;;8.15;3.95;;;;;;;-1.10;100.00;101748.34;5071011;28;20045;-49
2024/01/21 06:51:09;;;;;;;9.45;4.22;;;;;;;-1.03;100.00;101750.03;5069759;28;20052;-51
2024/01/21 06:53:38;;;;;;;9.07;4.18;;;;;;;-1.00;100.00;101762.94;5070733;28;20068;-50
2024/01/21 06:56:08;;;;;;;8.20;4.05;;;;;;;-0.96;100.00;101762.06;5070375;28;20460;-52
2024/01/21 06:58:36;;;;;;;9.13;4.43;;;;;;;-0.99;100.00;101746.59;5068825;28;20094;-52
2024/01/21 07:01:05;;;;;;;9.07;3.95;;;;;;;-0.93;100.00;101769.78;5070674;28;20060;-48
2024/01/21 07:03:34;;;;;;;9.40;4.07;;;;;;;-0.89;100.00;101768.06;5070361;28;20051;-52
2024/01/21 07:06:02;;;;;;;11.23;4.50;;;;;;;-0.72;100.00;101755.13;5069465;28;20171;-51
2024/01/21 07:08:31;;;;;;;11.20;4.22;;;;;;;-0.70;100.00;101758.53;5069623;28;20516;-49
2024/01/21 07:11:07;;;;;;;9.57;4.90;;;;;;;-0.66;100.00;101755.06;5069080;28;20051;-51
2024/01/21 07:13:35;;;;;;;10.18;4.38;;;;;;;-0.61;100.00;101742.16;5071126;28;20399;-48
2024/01/21 07:16:05;;;;;;;8.40;4.20;;;;;;;-0.60;100.00;101728.34;5071428;28;20056;-49
2024/01/21 07:18:33;;;;;;;10.73;4.47;;;;;;;-0.52;100.00;101716.25;5069484;28;20421;-49
2024/01/21 07:21:02;;;;;;;9.25;4.68;;;;;;;-0.40;100.00;101692.06;5067389;28;20040;-50
2024/01/21 07:23:30;;;;;;;11.85;4.53;;;;;;;-0.32;100.00;101671.34;5070664;28;20044;-50
2024/01/21 07:25:58;;;;;;;10.35;5.25;;;;;;;-0.34;100.00;101673.94;5071323;28;20398;-50
2024/01/21 07:28:26;;;;;;;10.25;4.75;;;;;;;-0.36;100.00;101691.19;5071478;28;20372;-50
2024/01/21 07:30:54;;;;;;;8.82;4.80;;;;;;;-0.39;100.00;101704.13;5070169;28;20052;-50
2024/01/21 07:33:24;;;;;;;10.48;5.05;;;;;;;-0.29;100.00;101692.84;5071275;28;20040;-49
2024/01/21 07:35:52;;;;;;;11.02;4.82;;;;;;;-0.30;100.00;101683.41;5071227;28;20092;-52
2024/01/21 07:38:20;;;;;;;9.35;4.65;;;;;;;-0.27;100.00;101685.97;5071158;28;20082;-48
2024/01/21 07:40:48;;;;;;;10.77;4.50;;;;;;;-0.23;100.00;101663.50;5071298;28;20040;-48
2024/01/21 07:43:17;;;;;;;9.23;4.60;;;;;;;-0.20;100.00;101676.44;5071201;28;20048;-49
2024/01/21 07:45:45;;;;;;;10.00;4.95;;;;;;;-0.18;100.00;101680.72;5071213;28;20123;-48
2024/01/21 07:48:14;;;;;;;11.75;4.50;;;;;;;-0.14;100.00;101691.91;5068370;28;20048;-50
2024/01/21 07:50:44;;;;;;;11.35;5.63;;;;;;;-0.10;100.00;101706.53;5067253;28;20412;-52
2024/01/21 07:53:12;;;;;;;9.90;4.70;;;;;;;-0.07;100.00;101700.47;5068009;28;20102;-51
2024/01/21 07:55:40;;;;;;;8.85;4.20;;;;;;;0.04;100.00;101710.75;5067940;28;20450;-53
2024/01/21 07:58:08;;;;;;;9.07;4.20;;;;;;;0.04;100.00;101714.22;5069163;28;20492;-52
2024/01/21 08:00:36;;;;;;;9.10;4.30;;;;;;;0.11;100.00;101738.28;5070599;28;20507;-50
2024/01/21 08:03:05;;;;;;;8.35;3.90;;;;;;;0.13;100.00;101729.63;5071097;28;20102;-49
2024/01/21 08:05:33;;;;;;;9.15;4.43;;;;;;;0.15;100.00;101740.84;5067443;28;20450;-50
2024/01/21 08:08:03;;;;;;;9.75;4.30;;;;;;;0.19;100.00;101746.00;5068536;28;20044;-51
2024/01/21 08:10:33;;;;;;;9.08;5.10;;;;;;;0.20;100.00;101743.38;5036180;28;1227013;-47
2024/01/21 08:13:02;;;;;;;11.13;4.53;;;;;;;0.24;100.00;101752.00;5071833;28;20040;-49
2024/01/21 08:15:30;;;;;;;9.50;5.28;;;;;;;0.29;100.00;101764.03;5071763;28;20053;-50
2024/01/21 08:17:58;;;;;;;10.07;4.25;;;;;;;0.34;100.00;101758.78;5068630;28;20040;-52
2024/01/21 08:20:26;;;;;;;11.18;4.70;;;;;;;0.38;100.00;101765.66;5068620;28;20132;-52
2024/01/21 08:22:55;;;;;;;9.85;4.50;;;;;;;0.43;100.00;101766.50;5070305;28;20040;-48
2024/01/21 08:25:24;;;;;;;10.00;3.97;;;;;;;0.46;100.00;101770.78;5071668;28;20056;-51
2024/01/21 08:27:53;;;;;;;9.27;4.00;;;;;;;0.50;100.00;101770.78;5071641;28;20063;-50
2024/01/21 08:30:21;;;;;;;9.07;4.30;;;;;;;0.52;100.00;101775.06;5068589;28;20079;-51
2024/01/21 08:32:49;;;;;;;9.10;4.22;;;;;;;0.53;100.00;101763.84;5068133;28;20143;-50
2024/01/21 08:35:19;;;;;;;9.90;4.57;;;;;;;0.60;100.00;101768.09;5071206;28;20079;-50
2024/01/21 08:37:47;;;;;;;10.80;4.90;;;;;;;0.60;100.00;101773.25;5071382;28;20041;-48
2024/01/21 08:40:16;;;;;;;10.63;4.30;;;;;;;0.60;100.00;101774.13;5068328;28;20396;-49
2024/01/21 08:42:45;;;;;;;9.85;4.35;;;;;;;0.70;100.00;101767.13;5069767;28;20135;-50
2024/01/21 08:45:14;;;;;;;10.82;4.80;;;;;;;0.75;100.00;101769.66;5071603;28;20059;-50
2024/01/21 08:47:42;;;;;;;9.07;4.57;;;;;;;0.75;100.00;101762.78;5071677;28;20083;-52
2024/01/21 08:50:11;;;;;;;9.30;4.40;;;;;;;0.75;100.00;101773.13;5071247;28;20140;-53
2024/01/21 08:52:39;;;;;;;8.75;4.10;;;;;;;0.79;100.00;101780.00;5071939;28;20044;-54
2024/01/21 08:55:08;;;;;;;9.98;4.00;;;;;;;0.82;100.00;101779.13;5072503;28;20065;-50
2024/01/21 08:57:37;;;;;;;9.32;4.30;;;;;;;0.89;100.00;101756.63;5071402;28;20063;-51
2024/01/21 09:00:08;;;;;;;8.13;4.28;;;;;;;0.90;100.00;101755.72;5069793;28;20051;-48
2024/01/21 09:02:42;;;;;;;8.77;4.25;;;;;;;0.92;100.00;101759.16;5072856;28;20054;-50
2024/01/21 09:05:13;;;;;;;8.80;4.28;;;;;;;0.91;100.00;101781.59;5074462;28;20080;-53
2024/01/21 09:07:41;;;;;;;8.82;4.45;;;;;;;0.98;100.00;101793.63;5072097;28;20070;-51
2024/01/21 09:10:10;;;;;;;9.52;4.40;;;;;;;1.03;100.00;101793.59;5071813;28;20069;-54
2024/01/21 09:12:38;;;;;;;9.32;4.88;;;;;;;1.05;100.00;101785.78;5074453;28;20514;-50
2024/01/21 09:15:08;;;;;;;8.70;4.32;;;;;;;1.07;100.00;101764.16;5073958;28;20131;-50
2024/01/21 09:17:37;;;;;;;8.40;4.60;;;;;;;1.11;100.00;101781.41;5074148;28;20051;-54
2024/01/21 09:20:06;;;;;;;10.10;4.22;;;;;;;1.14;100.00;101789.13;5074355;28;20045;-51
2024/01/21 09:22:35;;;;;;;9.20;4.22;;;;;;;1.24;100.00;101792.50;5071286;28;20080;-49
2024/01/21 09:25:03;;;;;;;8.07;4.32;;;;;;;1.23;100.00;101797.69;5071647;28;20044;-49
2024/01/21 09:27:32;;;;;;;8.73;4.13;;;;;;;1.24;100.00;101807.19;5070327;28;20072;-48
2024/01/21 09:30:00;;;;;;;10.02;4.40;;;;;;;1.28;100.00;101808.88;5070943;28;20139;-52
2024/01/21 09:32:30;;;;;;;10.38;4.75;;;;;;;1.32;100.00;101790.69;5070724;28;20469;-49
2024/01/21 09:34:58;;;;;;;9.73;4.40;;;;;;;1.32;100.00;101784.63;5070343;28;20047;-48
2024/01/21 09:37:26;;;;;;;8.98;4.55;;;;;;;1.32;100.00;101784.63;5071174;28;20158;-50
2024/01/21 09:39:56;;;;;;;9.95;4.20;;;;;;;1.33;100.00;101792.38;5072679;28;20147;-49
2024/01/21 09:42:28;;;;;;;10.77;4.47;;;;;;;1.37;100.00;101797.56;5070375;28;20110;-52
2024/01/21 09:44:56;;;;;;;9.98;4.70;;;;;;;1.39;100.00;101799.25;5070195;28;20553;-50
2024/01/21 09:47:25;;;;;;;9.85;4.82;;;;;;;1.37;100.00;101801.00;5070542;28;20967;-49
2024/01/21 09:49:56;;;;;;;10.25;4.50;;;;;;;1.41;100.00;101814.78;5073409;28;20492;-52
2024/01/21 09:52:24;;;;;;;8.45;4.00;;;;;;;1.43;100.00;101805.25;5070763;28;20705;-53
2024/01/21 09:54:55;;;;;;;10.00;4.57;;;;;;;1.44;100.00;101809.56;5070460;28;20053;-50
2024/01/21 09:57:24;;;;;;;11.05;4.13;;;;;;;1.46;100.00;101815.56;5070782;28;20045;-49
2024/01/21 09:59:52;;;;;;;8.35;4.32;;;;;;;1.50;100.00;101817.25;5068536;28;20118;-50
2024/01/21 10:02:21;;;;;;;9.43;4.55;;;;;;;1.47;100.00;101810.41;5068968;28;20048;-48
2024/01/21 10:04:49;;;;;;;8.63;4.10;;;;;;;1.47;100.00;101820.75;5072570;28;20049;-53
2024/01/21 10:07:19;;;;;;;11.32;4.35;;;;;;;1.46;100.00;101819.03;5068722;28;20040;-49
2024/01/21 10:09:54;;;;;;;8.80;4.15;;;;;;;1.51;100.00;101812.06;5070262;28;20122;-51
2024/01/21 10:12:24;;;;;;;9.95;4.70;;;;;;;1.52;100.00;101815.50;5072565;28;20057;-50
2024/01/21 10:14:53;;;;;;;8.05;3.95;;;;;;;1.57;100.00;101810.25;5071620;28;20139;-51
2024/01/21 10:17:25;;;;;;;9.65;4.45;;;;;;;1.56;100.00;101811.16;5069709;28;20056;-50
2024/01/21 10:19:54;;;;;;;8.38;3.92;;;;;;;1.54;100.00;101810.31;5069268;28;20052;-52
2024/01/21 10:22:26;;;;;;;8.95;4.15;;;;;;;1.55;100.00;101809.44;5069529;28;20449;-50
2024/01/21 10:24:56;;;;;;;11.00;4.40;;;;;;;1.55;100.00;101794.72;5068164;28;20075;-52
2024/01/21 10:27:25;;;;;;;9.77;4.40;;;;;;;1.59;100.00;101800.75;5068934;28;20052;-52
2024/01/21 10:29:53;;;;;;;10.35;4.70;;;;;;;1.64;100.00;101791.19;5069546;28;20040;-50
2024/01/21 10:32:21;;;;;;;10.95;4.78;;;;;;;1.67;100.00;101798.91;5069570;28;20055;-51
2024/01/21 10:34:52;;;;;;;10.10;4.50;;;;;;;1.74;100.00;101795.34;5069476;28;20059;-51
2024/01/21 10:37:20;;;;;;;10.13;4.45;;;;;;;1.72;100.00;101791.94;5072609;28;20560;-50
2024/01/21 10:39:50;;;;;;;9.25;4.38;;;;;;;1.75;100.00;101788.44;5072609;28;20040;-50
2024/01/21 10:42:21;;;;;;;10.75;5.00;;;;;;;1.74;100.00;101790.16;5070211;28;20400;-52
2024/01/21 10:44:52;;;;;;;9.05;4.90;;;;;;;1.79;100.00;101784.94;5069307;28;20055;-51
2024/01/21 10:47:22;;;;;;;11.10;4.82;;;;;;;1.84;100.00;101789.19;5068790;28;20136;-50
2024/01/21 10:49:50;;;;;;;9.63;4.75;;;;;;;1.84;100.00;101789.19;5072023;28;20040;-51
2024/01/21 10:52:20;;;;;;;8.45;4.88;;;;;;;1.88;100.00;101786.53;5072090;28;20067;-49
2024/01/21 10:54:50;;;;;;;8.73;4.80;;;;;;;1.90;100.00;101780.44;5067986;28;20095;-51
2024/01/21 10:57:19;;;;;;;8.73;4.45;;;;;;;1.95;100.00;101781.25;5069748;28;20450;-49
2024/01/21 10:59:47;;;;;;;12.15;4.97;;;;;;;1.97;100.00;101776.03;5072635;28;20049;-51
2024/01/21 11:02:20;;;;;;;;;;;;;;;2.01;100.00;101772.50;5073068;28;20072;-52
2024/01/21 11:04:48;;;;;;;12.57;5.30;;;;;;;2.01;100.00;101765.56;5069066;28;19931;-51
2024/01/21 11:07:18;;;;;;;9.13;4.35;;;;;;;2.05;100.00;101753.41;5069233;28;20491;-53
2024/01/21 11:09:48;;;;;;;10.93;4.82;;;;;;;2.09;100.00;101762.03;5068735;28;20055;-53
2024/01/21 11:12:20;;;;;;;9.15;4.63;;;;;;;2.12;100.00;101756.78;5069046;28;20049;-51
2024/01/21 11:14:48;;;;;;;9.02;4.45;;;;;;;2.16;100.00;101748.91;5069064;28;20052;-50
2024/01/21 11:17:19;;;;;;;11.13;5.20;;;;;;;2.16;100.00;101750.66;5068508;28;20052;-50
2024/01/21 11:19:52;;;;;;;10.40;5.18;;;;;;;2.19;100.00;101746.25;5069133;28;20048;-49
2024/01/21 11:22:23;;;;;;;8.50;4.47;;;;;;;2.18;100.00;101749.75;5069241;28;20087;-49